Torda, Románia

2015 Április 19 03:50 PM (EEST időzóna) (GMT +0300)
ICLUJCLU2 | | Change Station
CLOSE
Current Station
Personal Weather Stations
Location: Cluj-Napoca - Aspar.ro, Cluj
Elevation: 1010 ft
Közeli meteorológiai állomások

Elev 1010 ft 46.78 °N, 23.72 °E | Updated 9 minutes ago

Mostly Cloudy
Jórészt felhős
46.9 °F
Hőérzet 42 °F
N
10.0
Szél: változó Szél: from nyugat-északnyugati
Gusts 18.0 mph

Ma
High -- | Low -- °F
--% Csapadék valószínű
Tegnapi
High -- | Low -- °F
Precip. -- hvlyk.
6:31 AM 8:17 PM
Újhold, 1% visible
Légnyomás 30.09 hvlyk.
Látótávolság 6.2 mérföld
Felhők Elszórtan felhős 5800 ft
Jórészt felhős 7400 ft
Hőérzet 42 °F
Harmatpont 30 °F
Páratartalom 52%
Rainfall 0.00 hvlyk.
Hóréteg vastagsága Not available.
UV 3 out of 12
Pollen Not available.
A levegő minősége Not available.
Flu Activity Not available.
METAR LRCL 191230Z 30014KT 9999 SCT058 BKN074 09/M03 Q1019

More Conditions Fewer Conditions

Légnyomás 30.09 hvlyk.
Látótávolság 6.2 mérföld
Felhők Elszórtan felhős 5800 ft
Jórészt felhős 7400 ft
Hőérzet 42 °F
Harmatpont 30 °F
Páratartalom 52%
Rainfall 0.00 hvlyk.
Hóréteg vastagsága Not available.
UV 3 out of 12
Pollen Not available.
A levegő minősége Not available.
Flu Activity Not available.
METAR LRCL 191230Z 30014KT 9999 SCT058 BKN074 09/M03 Q1019

More Conditions Fewer Conditions

10-Day Weather Forecast

Almanac

Csillagászat

Apr. 19, 2015 Kel Nyugszik
Tényleges idő
Civil alkony
Tengerészeti alkony
Csillagászati alkony
Hold
Látható fény időtartama
A nap hossza
Tomorrow will be .
, % of the Moon is Illuminated

Today's Extremes

Country Highs Country Lows

Community

WunderPhotos

Upload Photos

1,814,775 Fotók feltöltve.

WunderBlogs® & News

Nearby

A levegő minősége

  A levegő minősége AQ Index Szennyezőanyag
Not available.

Hóréteg vastagsága

Station Depth Elevation

Earthquake Activity

város Distance Mag. Time & Date
Minimum magnitude displayed is 2.5.

Coastal Water Temperatures

Hely Hőmérséklet

Stations

Közeli meteorológiai állomások

Station Location Hőm. Hőérzet Harmatpont Páratartalom Szél: Precip. Elev Frissítve Type